KGXY/GXY METAR and TAF weather

Enter ICAO airport designator
Station Type Date Time Source
KGXY METAR 2020/01/23 20:56 UTC NOAA

KGXY 232056Z AUTO 28008KT 10SM FEW085 06/M08 A3007 RMK AO2 SLP209 T00561078 56020


Station Type Date Time Source
KGXY Decoded METAR 2020/01/23 20:56 UTC NOAA

Greeley, Greeley-Weld County Airport, CO, United States (KGXY) 40-26N 104-38W
Jan 23, 2020 - 03:56 PM EST / 2020.01.23 2056 UTC
Wind: from the W (280 degrees) at 9 MPH (8 KT):0
Visibility: 10 mile(s):0
Sky conditions: mostly clear
Temperature: 42.1 F (5.6 C)
Dew Point: 18.0 F (-7.8 C)
Relative Humidity: 37%
Pressure (altimeter): 30.07 in. Hg (1018 hPa)
Pressure tendency: 0.06 inches (2.0 hPa) lower than three hours ago
ob: KGXY 232056Z AUTO 28008KT 10SM FEW085 06/M08 A3007 RMK AO2 SLP209 T00561078 56020
cycle: 21

Station Type Date Time Source
KGXY TAF UTC NOAA

Error!

Example: see airport list